Terminal Aerodrome Forecast
Issued by NWS

Home | Current Version | Previous Version | Text Only | Print | Product List | Glossary On
Versions: 1 2 3 4 5 6 7 8 9 10 11 12 13 14 15 16 17 18
000
FTUS44 KBMX 270534
TAFTCL
TAF
KTCL 270534Z 2706/2806 34010KT P6SM VCSH BKN012 OVC025
      TEMPO 2706/2708 OVC015
     FM270800 34010KT P6SM OVC015
     FM271100 34010KT P6SM BKN025
     FM271400 34010KT P6SM SCT025=

USA.gov is the U.S. government's official web portal to all federal, state and local government web resources and services.